sensor_id;sensor_type;location;lat;lon;timestamp;P1;durP1;ratioP1;P2;durP2;ratioP2
23561;SDS011;11959;49.418;8.728;2023-04-06T00:00:45;8.13;;;5.10;;
23561;SDS011;11959;49.418;8.728;2023-04-06T00:03:12;7.50;;;4.60;;
23561;SDS011;11959;49.418;8.728;2023-04-06T00:05:38;6.63;;;4.53;;
23561;SDS011;11959;49.418;8.728;2023-04-06T00:08:04;4.97;;;4.05;;
23561;SDS011;11959;49.418;8.728;2023-04-06T00:10:30;6.13;;;4.50;;
23561;SDS011;11959;49.418;8.728;2023-04-06T00:12:56;7.22;;;4.80;;
23561;SDS011;11959;49.418;8.728;2023-04-06T00:15:23;5.88;;;4.53;;
23561;SDS011;11959;49.418;8.728;2023-04-06T00:17:48;8.25;;;4.43;;
23561;SDS011;11959;49.418;8.728;2023-04-06T00:20:15;6.97;;;4.05;;
23561;SDS011;11959;49.418;8.728;2023-04-06T00:22:41;7.38;;;4.45;;
23561;SDS011;11959;49.418;8.728;2023-04-06T00:25:07;6.25;;;4.28;;
23561;SDS011;11959;49.418;8.728;2023-04-06T00:27:33;7.53;;;4.90;;
23561;SDS011;11959;49.418;8.728;2023-04-06T00:29:58;8.73;;;4.63;;
23561;SDS011;11959;49.418;8.728;2023-04-06T00:32:24;6.70;;;4.60;;
23561;SDS011;11959;49.418;8.728;2023-04-06T00:34:50;7.50;;;4.75;;
23561;SDS011;11959;49.418;8.728;2023-04-06T00:37:15;7.32;;;4.40;;
23561;SDS011;11959;49.418;8.728;2023-04-06T00:39:41;6.30;;;4.50;;
23561;SDS011;11959;49.418;8.728;2023-04-06T00:42:09;5.80;;;4.45;;
23561;SDS011;11959;49.418;8.728;2023-04-06T00:44:42;8.43;;;5.00;;
23561;SDS011;11959;49.418;8.728;2023-04-06T00:47:08;6.00;;;4.55;;
23561;SDS011;11959;49.418;8.728;2023-04-06T00:49:34;6.55;;;4.43;;
23561;SDS011;11959;49.418;8.728;2023-04-06T00:52:00;6.22;;;4.80;;
23561;SDS011;11959;49.418;8.728;2023-04-06T00:54:26;6.55;;;4.35;;
23561;SDS011;11959;49.418;8.728;2023-04-06T00:56:53;8.77;;;4.70;;
23561;SDS011;11959;49.418;8.728;2023-04-06T00:59:20;7.07;;;4.72;;
23561;SDS011;11959;49.418;8.728;2023-04-06T01:01:45;7.65;;;5.10;;
23561;SDS011;11959;49.418;8.728;2023-04-06T01:04:11;6.50;;;4.55;;
23561;SDS011;11959;49.418;8.728;2023-04-06T01:06:37;6.28;;;4.53;;
23561;SDS011;11959;49.418;8.728;2023-04-06T01:09:02;6.00;;;4.75;;
23561;SDS011;11959;49.418;8.728;2023-04-06T01:11:28;6.95;;;4.35;;
23561;SDS011;11959;49.418;8.728;2023-04-06T01:13:54;7.68;;;4.68;;
23561;SDS011;11959;49.418;8.728;2023-04-06T01:16:20;7.90;;;4.78;;
23561;SDS011;11959;49.418;8.728;2023-04-06T01:18:46;5.72;;;4.10;;
23561;SDS011;11959;49.418;8.728;2023-04-06T01:21:11;8.35;;;4.45;;
23561;SDS011;11959;49.418;8.728;2023-04-06T01:23:49;8.13;;;4.40;;
23561;SDS011;11959;49.418;8.728;2023-04-06T01:26:15;5.95;;;4.43;;
23561;SDS011;11959;49.418;8.728;2023-04-06T01:28:41;7.53;;;5.03;;
23561;SDS011;11959;49.418;8.728;2023-04-06T01:31:07;6.38;;;4.53;;
23561;SDS011;11959;49.418;8.728;2023-04-06T01:33:33;7.72;;;4.65;;
23561;SDS011;11959;49.418;8.728;2023-04-06T01:36:00;8.48;;;5.20;;
23561;SDS011;11959;49.418;8.728;2023-04-06T01:38:26;6.20;;;4.43;;
23561;SDS011;11959;49.418;8.728;2023-04-06T01:40:52;7.43;;;4.63;;
23561;SDS011;11959;49.418;8.728;2023-04-06T01:43:18;7.38;;;4.70;;
23561;SDS011;11959;49.418;8.728;2023-04-06T01:45:44;6.15;;;5.03;;
23561;SDS011;11959;49.418;8.728;2023-04-06T01:48:10;6.75;;;4.90;;
23561;SDS011;11959;49.418;8.728;2023-04-06T01:50:35;5.45;;;4.50;;
23561;SDS011;11959;49.418;8.728;2023-04-06T01:53:01;5.75;;;4.35;;
23561;SDS011;11959;49.418;8.728;2023-04-06T01:55:26;6.57;;;4.32;;
23561;SDS011;11959;49.418;8.728;2023-04-06T01:57:52;6.95;;;4.45;;
23561;SDS011;11959;49.418;8.728;2023-04-06T02:00:18;6.53;;;4.45;;
23561;SDS011;11959;49.418;8.728;2023-04-06T02:02:44;9.18;;;4.70;;
23561;SDS011;11959;49.418;8.728;2023-04-06T02:05:10;7.32;;;4.22;;
23561;SDS011;11959;49.418;8.728;2023-04-06T02:07:35;7.72;;;4.70;;
23561;SDS011;11959;49.418;8.728;2023-04-06T02:10:01;6.82;;;4.60;;
23561;SDS011;11959;49.418;8.728;2023-04-06T02:12:27;7.13;;;4.47;;
23561;SDS011;11959;49.418;8.728;2023-04-06T02:14:53;7.35;;;4.47;;
23561;SDS011;11959;49.418;8.728;2023-04-06T02:17:18;6.40;;;4.30;;
23561;SDS011;11959;49.418;8.728;2023-04-06T02:19:44;7.10;;;4.68;;
23561;SDS011;11959;49.418;8.728;2023-04-06T02:22:10;7.50;;;5.03;;
23561;SDS011;11959;49.418;8.728;2023-04-06T02:24:36;6.47;;;4.50;;
23561;SDS011;11959;49.418;8.728;2023-04-06T02:27:02;8.82;;;4.82;;
23561;SDS011;11959;49.418;8.728;2023-04-06T02:29:27;7.30;;;5.05;;
23561;SDS011;11959;49.418;8.728;2023-04-06T02:31:53;9.38;;;4.97;;
23561;SDS011;11959;49.418;8.728;2023-04-06T02:34:18;6.05;;;4.65;;
23561;SDS011;11959;49.418;8.728;2023-04-06T02:36:44;8.85;;;4.40;;
23561;SDS011;11959;49.418;8.728;2023-04-06T02:39:10;5.60;;;4.60;;
23561;SDS011;11959;49.418;8.728;2023-04-06T02:41:36;7.55;;;4.78;;
23561;SDS011;11959;49.418;8.728;2023-04-06T02:44:02;9.45;;;4.78;;
23561;SDS011;11959;49.418;8.728;2023-04-06T02:46:28;5.90;;;4.45;;
23561;SDS011;11959;49.418;8.728;2023-04-06T02:48:54;6.93;;;4.72;;
23561;SDS011;11959;49.418;8.728;2023-04-06T02:51:20;6.70;;;4.93;;
23561;SDS011;11959;49.418;8.728;2023-04-06T02:53:46;7.35;;;4.68;;
23561;SDS011;11959;49.418;8.728;2023-04-06T02:56:11;5.75;;;4.40;;
23561;SDS011;11959;49.418;8.728;2023-04-06T02:58:37;8.63;;;5.03;;
23561;SDS011;11959;49.418;8.728;2023-04-06T03:01:03;6.90;;;5.03;;
23561;SDS011;11959;49.418;8.728;2023-04-06T03:03:28;6.78;;;4.88;;
23561;SDS011;11959;49.418;8.728;2023-04-06T03:05:55;5.90;;;4.18;;
23561;SDS011;11959;49.418;8.728;2023-04-06T03:08:23;7.68;;;5.22;;
23561;SDS011;11959;49.418;8.728;2023-04-06T03:10:50;8.23;;;5.25;;
23561;SDS011;11959;49.418;8.728;2023-04-06T03:13:16;6.75;;;5.00;;
23561;SDS011;11959;49.418;8.728;2023-04-06T03:15:41;6.82;;;4.70;;
23561;SDS011;11959;49.418;8.728;2023-04-06T03:18:07;7.68;;;4.88;;
23561;SDS011;11959;49.418;8.728;2023-04-06T03:20:33;7.72;;;5.07;;
23561;SDS011;11959;49.418;8.728;2023-04-06T03:22:58;6.22;;;4.70;;
23561;SDS011;11959;49.418;8.728;2023-04-06T03:25:24;6.88;;;5.15;;
23561;SDS011;11959;49.418;8.728;2023-04-06T03:27:50;7.53;;;4.80;;
23561;SDS011;11959;49.418;8.728;2023-04-06T03:30:16;6.40;;;4.32;;
23561;SDS011;11959;49.418;8.728;2023-04-06T03:32:43;7.25;;;4.95;;
23561;SDS011;11959;49.418;8.728;2023-04-06T03:35:09;6.10;;;4.75;;
23561;SDS011;11959;49.418;8.728;2023-04-06T03:37:35;7.68;;;4.78;;
23561;SDS011;11959;49.418;8.728;2023-04-06T03:40:01;7.88;;;5.05;;
23561;SDS011;11959;49.418;8.728;2023-04-06T03:42:27;7.53;;;5.20;;
23561;SDS011;11959;49.418;8.728;2023-04-06T03:44:53;8.32;;;5.40;;
23561;SDS011;11959;49.418;8.728;2023-04-06T03:47:19;7.13;;;5.18;;
23561;SDS011;11959;49.418;8.728;2023-04-06T03:49:45;7.22;;;5.00;;
23561;SDS011;11959;49.418;8.728;2023-04-06T03:52:11;7.72;;;5.20;;
23561;SDS011;11959;49.418;8.728;2023-04-06T03:54:36;7.82;;;5.25;;
23561;SDS011;11959;49.418;8.728;2023-04-06T03:57:02;9.52;;;5.57;;
23561;SDS011;11959;49.418;8.728;2023-04-06T03:59:28;9.10;;;5.65;;
23561;SDS011;11959;49.418;8.728;2023-04-06T04:01:54;9.43;;;5.35;;
23561;SDS011;11959;49.418;8.728;2023-04-06T04:04:20;8.90;;;5.68;;
23561;SDS011;11959;49.418;8.728;2023-04-06T04:06:45;7.85;;;5.90;;
23561;SDS011;11959;49.418;8.728;2023-04-06T04:09:11;9.35;;;5.70;;
23561;SDS011;11959;49.418;8.728;2023-04-06T04:11:37;8.88;;;5.88;;
23561;SDS011;11959;49.418;8.728;2023-04-06T04:14:03;8.57;;;5.35;;
23561;SDS011;11959;49.418;8.728;2023-04-06T04:16:28;8.60;;;5.53;;
23561;SDS011;11959;49.418;8.728;2023-04-06T04:18:54;8.25;;;5.60;;
23561;SDS011;11959;49.418;8.728;2023-04-06T04:21:20;6.63;;;5.35;;
23561;SDS011;11959;49.418;8.728;2023-04-06T04:23:46;7.78;;;5.43;;
23561;SDS011;11959;49.418;8.728;2023-04-06T04:26:11;8.88;;;6.22;;
23561;SDS011;11959;49.418;8.728;2023-04-06T04:28:37;8.43;;;5.53;;
23561;SDS011;11959;49.418;8.728;2023-04-06T04:31:02;10.23;;;5.85;;
23561;SDS011;11959;49.418;8.728;2023-04-06T04:33:28;7.53;;;4.97;;
23561;SDS011;11959;49.418;8.728;2023-04-06T04:35:54;6.40;;;5.38;;
23561;SDS011;11959;49.418;8.728;2023-04-06T04:38:20;10.70;;;6.53;;
23561;SDS011;11959;49.418;8.728;2023-04-06T04:40:45;6.68;;;5.50;;
23561;SDS011;11959;49.418;8.728;2023-04-06T04:43:12;8.10;;;5.63;;
23561;SDS011;11959;49.418;8.728;2023-04-06T04:45:38;7.63;;;5.50;;
23561;SDS011;11959;49.418;8.728;2023-04-06T04:48:04;8.95;;;5.93;;
23561;SDS011;11959;49.418;8.728;2023-04-06T04:50:30;9.57;;;6.00;;
23561;SDS011;11959;49.418;8.728;2023-04-06T04:52:56;10.63;;;5.25;;
23561;SDS011;11959;49.418;8.728;2023-04-06T04:55:22;8.73;;;5.85;;
23561;SDS011;11959;49.418;8.728;2023-04-06T04:57:48;7.43;;;6.07;;
23561;SDS011;11959;49.418;8.728;2023-04-06T05:00:13;6.72;;;5.13;;
23561;SDS011;11959;49.418;8.728;2023-04-06T05:02:40;9.85;;;6.70;;
23561;SDS011;11959;49.418;8.728;2023-04-06T05:05:05;8.65;;;5.55;;
23561;SDS011;11959;49.418;8.728;2023-04-06T05:07:32;7.60;;;5.43;;
23561;SDS011;11959;49.418;8.728;2023-04-06T05:09:58;7.85;;;5.70;;
23561;SDS011;11959;49.418;8.728;2023-04-06T05:12:24;7.45;;;5.95;;
23561;SDS011;11959;49.418;8.728;2023-04-06T05:14:51;8.25;;;5.72;;
23561;SDS011;11959;49.418;8.728;2023-04-06T05:17:18;9.38;;;5.95;;
23561;SDS011;11959;49.418;8.728;2023-04-06T05:19:43;7.90;;;5.72;;
23561;SDS011;11959;49.418;8.728;2023-04-06T05:22:10;10.48;;;5.90;;
23561;SDS011;11959;49.418;8.728;2023-04-06T05:24:36;10.38;;;6.53;;
23561;SDS011;11959;49.418;8.728;2023-04-06T05:27:02;7.10;;;5.82;;
23561;SDS011;11959;49.418;8.728;2023-04-06T05:29:28;9.60;;;7.03;;
23561;SDS011;11959;49.418;8.728;2023-04-06T05:31:54;10.68;;;7.43;;
23561;SDS011;11959;49.418;8.728;2023-04-06T05:34:20;10.52;;;7.13;;
23561;SDS011;11959;49.418;8.728;2023-04-06T05:36:45;9.50;;;6.07;;
23561;SDS011;11959;49.418;8.728;2023-04-06T05:39:11;10.50;;;6.47;;
23561;SDS011;11959;49.418;8.728;2023-04-06T05:41:37;7.53;;;6.25;;
23561;SDS011;11959;49.418;8.728;2023-04-06T05:44:03;8.48;;;6.25;;
23561;SDS011;11959;49.418;8.728;2023-04-06T05:46:29;9.30;;;6.85;;
23561;SDS011;11959;49.418;8.728;2023-04-06T05:48:54;10.15;;;7.10;;
23561;SDS011;11959;49.418;8.728;2023-04-06T05:51:21;10.75;;;6.05;;
23561;SDS011;11959;49.418;8.728;2023-04-06T05:53:46;9.10;;;6.35;;
23561;SDS011;11959;49.418;8.728;2023-04-06T05:56:12;8.57;;;6.35;;
23561;SDS011;11959;49.418;8.728;2023-04-06T05:58:38;9.15;;;6.95;;
23561;SDS011;11959;49.418;8.728;2023-04-06T06:01:03;10.35;;;7.25;;
23561;SDS011;11959;49.418;8.728;2023-04-06T06:03:29;9.93;;;7.03;;
23561;SDS011;11959;49.418;8.728;2023-04-06T06:06:02;11.35;;;7.15;;
23561;SDS011;11959;49.418;8.728;2023-04-06T06:08:28;8.65;;;6.65;;
23561;SDS011;11959;49.418;8.728;2023-04-06T06:10:54;8.10;;;6.53;;
23561;SDS011;11959;49.418;8.728;2023-04-06T06:13:21;11.27;;;7.07;;
23561;SDS011;11959;49.418;8.728;2023-04-06T06:15:47;10.20;;;6.93;;
23561;SDS011;11959;49.418;8.728;2023-04-06T06:18:13;11.57;;;7.65;;
23561;SDS011;11959;49.418;8.728;2023-04-06T06:20:39;9.25;;;6.93;;
23561;SDS011;11959;49.418;8.728;2023-04-06T06:23:04;10.50;;;6.93;;
23561;SDS011;11959;49.418;8.728;2023-04-06T06:25:30;10.57;;;6.93;;
23561;SDS011;11959;49.418;8.728;2023-04-06T06:27:57;10.40;;;6.90;;
23561;SDS011;11959;49.418;8.728;2023-04-06T06:30:23;10.32;;;7.20;;
23561;SDS011;11959;49.418;8.728;2023-04-06T06:32:49;11.32;;;6.63;;
23561;SDS011;11959;49.418;8.728;2023-04-06T06:35:15;10.65;;;7.30;;
23561;SDS011;11959;49.418;8.728;2023-04-06T06:37:41;10.43;;;7.25;;
23561;SDS011;11959;49.418;8.728;2023-04-06T06:40:08;9.65;;;6.97;;
23561;SDS011;11959;49.418;8.728;2023-04-06T06:42:35;9.02;;;7.30;;
23561;SDS011;11959;49.418;8.728;2023-04-06T06:45:01;10.30;;;7.38;;
23561;SDS011;11959;49.418;8.728;2023-04-06T06:47:26;9.73;;;7.25;;
23561;SDS011;11959;49.418;8.728;2023-04-06T06:49:52;11.80;;;7.18;;
23561;SDS011;11959;49.418;8.728;2023-04-06T06:52:17;9.32;;;7.20;;
23561;SDS011;11959;49.418;8.728;2023-04-06T06:54:43;10.68;;;6.82;;
23561;SDS011;11959;49.418;8.728;2023-04-06T06:57:09;9.60;;;6.95;;
23561;SDS011;11959;49.418;8.728;2023-04-06T06:59:35;11.93;;;7.80;;
23561;SDS011;11959;49.418;8.728;2023-04-06T07:02:00;13.18;;;7.70;;
23561;SDS011;11959;49.418;8.728;2023-04-06T07:04:26;11.77;;;7.45;;
23561;SDS011;11959;49.418;8.728;2023-04-06T07:06:52;12.15;;;7.95;;
23561;SDS011;11959;49.418;8.728;2023-04-06T07:09:17;10.07;;;7.43;;
23561;SDS011;11959;49.418;8.728;2023-04-06T07:11:43;11.52;;;8.23;;
23561;SDS011;11959;49.418;8.728;2023-04-06T07:14:09;10.02;;;7.82;;
23561;SDS011;11959;49.418;8.728;2023-04-06T07:16:36;10.38;;;7.72;;
23561;SDS011;11959;49.418;8.728;2023-04-06T07:19:02;11.02;;;7.65;;
23561;SDS011;11959;49.418;8.728;2023-04-06T07:21:28;11.05;;;7.80;;
23561;SDS011;11959;49.418;8.728;2023-04-06T07:23:53;11.30;;;8.43;;
23561;SDS011;11959;49.418;8.728;2023-04-06T07:26:19;10.55;;;7.97;;
23561;SDS011;11959;49.418;8.728;2023-04-06T07:28:45;8.98;;;7.70;;
23561;SDS011;11959;49.418;8.728;2023-04-06T07:31:11;10.45;;;7.70;;
23561;SDS011;11959;49.418;8.728;2023-04-06T07:33:36;11.73;;;8.27;;
23561;SDS011;11959;49.418;8.728;2023-04-06T07:36:02;11.63;;;8.02;;
23561;SDS011;11959;49.418;8.728;2023-04-06T07:38:28;13.05;;;8.85;;
23561;SDS011;11959;49.418;8.728;2023-04-06T07:40:53;11.65;;;8.68;;
23561;SDS011;11959;49.418;8.728;2023-04-06T07:43:19;11.38;;;8.55;;
23561;SDS011;11959;49.418;8.728;2023-04-06T07:45:45;13.43;;;8.63;;
23561;SDS011;11959;49.418;8.728;2023-04-06T07:48:10;11.57;;;8.90;;
23561;SDS011;11959;49.418;8.728;2023-04-06T07:50:36;13.27;;;8.50;;
23561;SDS011;11959;49.418;8.728;2023-04-06T07:53:02;13.45;;;9.23;;
23561;SDS011;11959;49.418;8.728;2023-04-06T07:55:27;13.43;;;8.32;;
23561;SDS011;11959;49.418;8.728;2023-04-06T07:57:53;12.13;;;8.38;;
23561;SDS011;11959;49.418;8.728;2023-04-06T08:00:19;10.23;;;8.13;;
23561;SDS011;11959;49.418;8.728;2023-04-06T08:02:45;11.57;;;8.45;;
23561;SDS011;11959;49.418;8.728;2023-04-06T08:05:10;10.65;;;8.65;;
23561;SDS011;11959;49.418;8.728;2023-04-06T08:07:36;12.52;;;8.40;;
23561;SDS011;11959;49.418;8.728;2023-04-06T08:10:02;11.15;;;8.23;;
23561;SDS011;11959;49.418;8.728;2023-04-06T08:12:28;12.30;;;8.32;;
23561;SDS011;11959;49.418;8.728;2023-04-06T08:14:54;11.45;;;8.07;;
23561;SDS011;11959;49.418;8.728;2023-04-06T08:17:20;12.20;;;8.85;;
23561;SDS011;11959;49.418;8.728;2023-04-06T08:19:45;11.32;;;8.55;;
23561;SDS011;11959;49.418;8.728;2023-04-06T08:22:11;13.40;;;8.82;;
23561;SDS011;11959;49.418;8.728;2023-04-06T08:24:37;10.38;;;8.70;;
23561;SDS011;11959;49.418;8.728;2023-04-06T08:27:03;12.10;;;8.35;;
23561;SDS011;11959;49.418;8.728;2023-04-06T08:29:28;11.48;;;8.07;;
23561;SDS011;11959;49.418;8.728;2023-04-06T08:31:54;13.18;;;8.50;;
23561;SDS011;11959;49.418;8.728;2023-04-06T08:34:20;11.75;;;8.80;;
23561;SDS011;11959;49.418;8.728;2023-04-06T08:36:46;11.13;;;8.32;;
23561;SDS011;11959;49.418;8.728;2023-04-06T08:39:12;11.70;;;8.45;;
23561;SDS011;11959;49.418;8.728;2023-04-06T08:41:38;10.60;;;8.20;;
23561;SDS011;11959;49.418;8.728;2023-04-06T08:44:06;12.43;;;8.48;;
23561;SDS011;11959;49.418;8.728;2023-04-06T08:46:32;11.13;;;8.07;;
23561;SDS011;11959;49.418;8.728;2023-04-06T08:48:58;14.63;;;8.70;;
23561;SDS011;11959;49.418;8.728;2023-04-06T08:51:26;10.90;;;8.50;;
23561;SDS011;11959;49.418;8.728;2023-04-06T08:53:53;10.13;;;7.20;;
23561;SDS011;11959;49.418;8.728;2023-04-06T08:56:20;11.27;;;8.32;;
23561;SDS011;11959;49.418;8.728;2023-04-06T08:58:47;11.55;;;7.65;;
23561;SDS011;11959;49.418;8.728;2023-04-06T09:01:13;11.55;;;8.07;;
23561;SDS011;11959;49.418;8.728;2023-04-06T09:03:41;13.23;;;8.00;;
23561;SDS011;11959;49.418;8.728;2023-04-06T09:06:08;11.88;;;8.48;;
23561;SDS011;11959;49.418;8.728;2023-04-06T09:08:35;11.45;;;7.85;;
23561;SDS011;11959;49.418;8.728;2023-04-06T09:11:03;11.73;;;8.13;;
23561;SDS011;11959;49.418;8.728;2023-04-06T09:13:29;11.60;;;8.10;;
23561;SDS011;11959;49.418;8.728;2023-04-06T09:16:02;11.50;;;7.65;;
23561;SDS011;11959;49.418;8.728;2023-04-06T09:18:32;10.70;;;7.57;;
23561;SDS011;11959;49.418;8.728;2023-04-06T09:21:01;11.50;;;7.55;;
23561;SDS011;11959;49.418;8.728;2023-04-06T09:23:29;10.80;;;7.70;;
23561;SDS011;11959;49.418;8.728;2023-04-06T09:26:05;11.52;;;7.78;;
23561;SDS011;11959;49.418;8.728;2023-04-06T09:28:41;13.98;;;8.05;;
23561;SDS011;11959;49.418;8.728;2023-04-06T09:33:47;11.45;;;7.80;;
23561;SDS011;11959;49.418;8.728;2023-04-06T09:36:13;10.70;;;7.50;;
23561;SDS011;11959;49.418;8.728;2023-04-06T09:38:54;10.32;;;7.53;;
23561;SDS011;11959;49.418;8.728;2023-04-06T09:41:34;14.77;;;7.95;;
23561;SDS011;11959;49.418;8.728;2023-04-06T09:44:10;10.45;;;7.45;;
23561;SDS011;11959;49.418;8.728;2023-04-06T09:46:37;12.07;;;6.78;;
23561;SDS011;11959;49.418;8.728;2023-04-06T09:49:10;8.30;;;6.18;;
23561;SDS011;11959;49.418;8.728;2023-04-06T09:51:37;8.85;;;6.32;;
23561;SDS011;11959;49.418;8.728;2023-04-06T09:54:21;7.32;;;5.85;;
23561;SDS011;11959;49.418;8.728;2023-04-06T10:02:00;11.18;;;6.72;;
23561;SDS011;11959;49.418;8.728;2023-04-06T10:06:58;8.52;;;6.35;;
23561;SDS011;11959;49.418;8.728;2023-04-06T10:09:28;9.65;;;6.13;;
23561;SDS011;11959;49.418;8.728;2023-04-06T10:12:01;10.15;;;6.90;;
23561;SDS011;11959;49.418;8.728;2023-04-06T10:14:31;9.50;;;6.65;;
23561;SDS011;11959;49.418;8.728;2023-04-06T10:17:00;8.32;;;6.00;;
23561;SDS011;11959;49.418;8.728;2023-04-06T10:19:28;9.93;;;6.15;;
23561;SDS011;11959;49.418;8.728;2023-04-06T10:21:59;8.25;;;6.28;;
23561;SDS011;11959;49.418;8.728;2023-04-06T10:24:27;8.85;;;6.60;;
23561;SDS011;11959;49.418;8.728;2023-04-06T10:26:56;7.53;;;5.82;;
23561;SDS011;11959;49.418;8.728;2023-04-06T10:29:23;8.65;;;6.03;;
23561;SDS011;11959;49.418;8.728;2023-04-06T10:31:49;7.93;;;6.03;;
23561;SDS011;11959;49.418;8.728;2023-04-06T10:34:15;9.30;;;6.15;;
23561;SDS011;11959;49.418;8.728;2023-04-06T10:36:40;8.70;;;5.55;;
23561;SDS011;11959;49.418;8.728;2023-04-06T10:39:06;7.35;;;5.57;;
23561;SDS011;11959;49.418;8.728;2023-04-06T10:41:36;5.45;;;4.35;;
23561;SDS011;11959;49.418;8.728;2023-04-06T10:44:06;8.63;;;5.60;;
23561;SDS011;11959;49.418;8.728;2023-04-06T10:46:32;8.23;;;6.13;;
23561;SDS011;11959;49.418;8.728;2023-04-06T10:49:11;8.98;;;5.97;;
23561;SDS011;11959;49.418;8.728;2023-04-06T10:51:37;10.23;;;6.65;;
23561;SDS011;11959;49.418;8.728;2023-04-06T10:54:05;10.10;;;6.45;;
23561;SDS011;11959;49.418;8.728;2023-04-06T10:56:32;10.40;;;7.10;;
23561;SDS011;11959;49.418;8.728;2023-04-06T10:59:01;8.52;;;6.68;;
23561;SDS011;11959;49.418;8.728;2023-04-06T11:01:27;9.38;;;6.35;;
23561;SDS011;11959;49.418;8.728;2023-04-06T11:03:53;9.98;;;6.70;;
23561;SDS011;11959;49.418;8.728;2023-04-06T11:06:27;7.47;;;5.22;;
23561;SDS011;11959;49.418;8.728;2023-04-06T11:08:55;7.65;;;5.75;;
23561;SDS011;11959;49.418;8.728;2023-04-06T11:11:22;7.05;;;5.40;;
23561;SDS011;11959;49.418;8.728;2023-04-06T11:13:51;7.30;;;5.63;;
23561;SDS011;11959;49.418;8.728;2023-04-06T11:16:22;9.00;;;5.70;;
23561;SDS011;11959;49.418;8.728;2023-04-06T11:18:58;9.25;;;6.20;;
23561;SDS011;11959;49.418;8.728;2023-04-06T11:21:37;8.02;;;5.93;;
23561;SDS011;11959;49.418;8.728;2023-04-06T11:26:42;7.57;;;5.25;;
23561;SDS011;11959;49.418;8.728;2023-04-06T11:29:14;7.43;;;6.30;;
23561;SDS011;11959;49.418;8.728;2023-04-06T11:31:45;10.00;;;6.85;;
23561;SDS011;11959;49.418;8.728;2023-04-06T11:34:16;8.80;;;6.40;;
23561;SDS011;11959;49.418;8.728;2023-04-06T11:36:44;9.18;;;5.95;;
23561;SDS011;11959;49.418;8.728;2023-04-06T11:39:11;8.40;;;6.10;;
23561;SDS011;11959;49.418;8.728;2023-04-06T11:41:37;7.40;;;5.90;;
23561;SDS011;11959;49.418;8.728;2023-04-06T11:44:03;9.00;;;6.43;;
23561;SDS011;11959;49.418;8.728;2023-04-06T11:46:31;7.38;;;6.30;;
23561;SDS011;11959;49.418;8.728;2023-04-06T11:49:00;10.43;;;6.30;;
23561;SDS011;11959;49.418;8.728;2023-04-06T11:51:27;6.95;;;5.25;;
23561;SDS011;11959;49.418;8.728;2023-04-06T11:53:53;6.57;;;5.83;;
23561;SDS011;11959;49.418;8.728;2023-04-06T11:56:23;8.30;;;6.13;;
23561;SDS011;11959;49.418;8.728;2023-04-06T11:58:56;9.52;;;7.07;;
23561;SDS011;11959;49.418;8.728;2023-04-06T12:01:24;10.05;;;7.15;;
23561;SDS011;11959;49.418;8.728;2023-04-06T12:03:51;9.57;;;6.32;;
23561;SDS011;11959;49.418;8.728;2023-04-06T12:06:17;8.60;;;6.80;;
23561;SDS011;11959;49.418;8.728;2023-04-06T12:08:43;9.07;;;6.15;;
23561;SDS011;11959;49.418;8.728;2023-04-06T12:11:10;8.20;;;6.32;;
23561;SDS011;11959;49.418;8.728;2023-04-06T12:13:36;10.27;;;6.45;;
23561;SDS011;11959;49.418;8.728;2023-04-06T12:16:02;9.40;;;6.53;;
23561;SDS011;11959;49.418;8.728;2023-04-06T12:18:27;9.05;;;6.60;;
23561;SDS011;11959;49.418;8.728;2023-04-06T12:20:53;10.98;;;7.53;;
23561;SDS011;11959;49.418;8.728;2023-04-06T12:23:19;9.07;;;6.40;;
23561;SDS011;11959;49.418;8.728;2023-04-06T12:25:45;9.27;;;6.60;;
23561;SDS011;11959;49.418;8.728;2023-04-06T12:28:11;9.95;;;6.80;;
23561;SDS011;11959;49.418;8.728;2023-04-06T12:30:37;8.77;;;6.30;;
23561;SDS011;11959;49.418;8.728;2023-04-06T12:33:03;10.57;;;7.15;;
23561;SDS011;11959;49.418;8.728;2023-04-06T12:35:28;9.38;;;6.88;;
23561;SDS011;11959;49.418;8.728;2023-04-06T12:37:58;9.00;;;7.20;;
23561;SDS011;11959;49.418;8.728;2023-04-06T12:40:23;10.88;;;7.10;;
23561;SDS011;11959;49.418;8.728;2023-04-06T12:42:49;9.50;;;6.85;;
23561;SDS011;11959;49.418;8.728;2023-04-06T12:45:15;9.30;;;7.43;;
23561;SDS011;11959;49.418;8.728;2023-04-06T12:47:40;10.73;;;7.50;;
23561;SDS011;11959;49.418;8.728;2023-04-06T12:50:06;8.55;;;6.57;;
23561;SDS011;11959;49.418;8.728;2023-04-06T12:52:32;8.45;;;6.68;;
23561;SDS011;11959;49.418;8.728;2023-04-06T12:55:00;9.02;;;6.70;;
23561;SDS011;11959;49.418;8.728;2023-04-06T12:57:29;8.98;;;7.10;;
23561;SDS011;11959;49.418;8.728;2023-04-06T12:59:56;9.93;;;7.40;;
23561;SDS011;11959;49.418;8.728;2023-04-06T13:02:22;9.50;;;7.18;;
23561;SDS011;11959;49.418;8.728;2023-04-06T13:04:48;10.18;;;7.15;;
23561;SDS011;11959;49.418;8.728;2023-04-06T13:07:14;10.18;;;7.18;;
23561;SDS011;11959;49.418;8.728;2023-04-06T13:09:40;9.52;;;7.05;;
23561;SDS011;11959;49.418;8.728;2023-04-06T13:12:06;10.38;;;7.00;;
23561;SDS011;11959;49.418;8.728;2023-04-06T13:14:31;9.70;;;6.60;;
23561;SDS011;11959;49.418;8.728;2023-04-06T13:16:57;9.60;;;6.63;;
23561;SDS011;11959;49.418;8.728;2023-04-06T13:19:23;9.27;;;6.65;;
23561;SDS011;11959;49.418;8.728;2023-04-06T13:21:48;9.13;;;6.45;;
23561;SDS011;11959;49.418;8.728;2023-04-06T13:24:14;8.35;;;6.25;;
23561;SDS011;11959;49.418;8.728;2023-04-06T13:26:40;9.23;;;6.63;;
23561;SDS011;11959;49.418;8.728;2023-04-06T13:29:05;10.55;;;6.45;;
23561;SDS011;11959;49.418;8.728;2023-04-06T13:31:31;11.48;;;6.70;;
23561;SDS011;11959;49.418;8.728;2023-04-06T13:33:57;9.32;;;6.30;;
23561;SDS011;11959;49.418;8.728;2023-04-06T13:36:23;9.18;;;6.55;;
23561;SDS011;11959;49.418;8.728;2023-04-06T13:38:48;9.48;;;7.22;;
23561;SDS011;11959;49.418;8.728;2023-04-06T13:41:20;10.63;;;7.55;;
23561;SDS011;11959;49.418;8.728;2023-04-06T13:43:47;9.80;;;7.53;;
23561;SDS011;11959;49.418;8.728;2023-04-06T13:46:13;12.57;;;7.43;;
23561;SDS011;11959;49.418;8.728;2023-04-06T13:48:38;9.98;;;6.82;;
23561;SDS011;11959;49.418;8.728;2023-04-06T13:51:08;10.32;;;7.32;;
23561;SDS011;11959;49.418;8.728;2023-04-06T13:53:37;8.20;;;7.10;;
23561;SDS011;11959;49.418;8.728;2023-04-06T13:56:04;10.52;;;7.47;;
23561;SDS011;11959;49.418;8.728;2023-04-06T13:58:29;10.60;;;7.15;;
23561;SDS011;11959;49.418;8.728;2023-04-06T14:01:01;9.75;;;7.22;;
23561;SDS011;11959;49.418;8.728;2023-04-06T14:03:31;8.73;;;6.82;;
23561;SDS011;11959;49.418;8.728;2023-04-06T14:05:57;12.57;;;7.22;;
23561;SDS011;11959;49.418;8.728;2023-04-06T14:08:22;9.30;;;7.10;;
23561;SDS011;11959;49.418;8.728;2023-04-06T14:10:48;11.18;;;6.75;;
23561;SDS011;11959;49.418;8.728;2023-04-06T14:13:14;10.88;;;7.03;;
23561;SDS011;11959;49.418;8.728;2023-04-06T14:15:40;10.25;;;6.97;;
23561;SDS011;11959;49.418;8.728;2023-04-06T14:18:07;10.35;;;7.28;;
23561;SDS011;11959;49.418;8.728;2023-04-06T14:20:33;9.15;;;6.90;;
23561;SDS011;11959;49.418;8.728;2023-04-06T14:23:01;11.32;;;7.63;;
23561;SDS011;11959;49.418;8.728;2023-04-06T14:25:28;9.10;;;7.28;;
23561;SDS011;11959;49.418;8.728;2023-04-06T14:27:56;10.23;;;6.75;;
23561;SDS011;11959;49.418;8.728;2023-04-06T14:30:22;9.38;;;6.18;;
23561;SDS011;11959;49.418;8.728;2023-04-06T14:32:47;10.68;;;6.82;;
23561;SDS011;11959;49.418;8.728;2023-04-06T14:35:13;10.70;;;6.72;;
23561;SDS011;11959;49.418;8.728;2023-04-06T14:37:39;8.52;;;6.43;;
23561;SDS011;11959;49.418;8.728;2023-04-06T14:40:05;11.00;;;7.05;;
23561;SDS011;11959;49.418;8.728;2023-04-06T14:42:31;8.70;;;6.70;;
23561;SDS011;11959;49.418;8.728;2023-04-06T14:44:57;11.15;;;6.55;;
23561;SDS011;11959;49.418;8.728;2023-04-06T14:47:22;9.38;;;6.50;;
23561;SDS011;11959;49.418;8.728;2023-04-06T14:49:50;9.30;;;6.78;;
23561;SDS011;11959;49.418;8.728;2023-04-06T14:52:16;10.02;;;6.50;;